Time;durP1;ratioP1;P1;durP2;ratioP2;P2;SDS_P1;SDS_P2;PMS_P1;PMS_P2;Temp;Humidity;BMP_temperature;BMP_pressure;BME280_temperature;BME280_humidity;BME280_pressure;Samples;Min_cycle;Max_cycle;Signal;HPM_P1;HPM_P2
2022/07/13 00:00:14;;;;;;;2.30;1.27;;;18.40;99.90;;;;;;5054878;28;20037;-47
2022/07/13 00:02:40;;;;;;;1.95;1.33;;;18.40;99.90;;;;;;5055274;28;20029;-49
2022/07/13 00:05:06;;;;;;;2.95;1.40;;;18.40;99.90;;;;;;5036083;28;20137;-48
2022/07/13 00:07:33;;;;;;;3.35;1.33;;;18.40;99.90;;;;;;5052884;28;20056;-49
2022/07/13 00:09:59;;;;;;;1.85;1.40;;;18.40;99.90;;;;;;5054711;28;20025;-48
2022/07/13 00:12:25;;;;;;;2.75;1.58;;;18.40;99.90;;;;;;5035978;28;20040;-48
2022/07/13 00:14:50;;;;;;;2.65;1.55;;;18.40;99.90;;;;;;5054919;28;20029;-49
2022/07/13 00:17:17;;;;;;;4.25;1.60;;;18.30;99.90;;;;;;5054909;28;20059;-49
2022/07/13 00:19:42;;;;;;;5.10;1.50;;;18.30;99.90;;;;;;5035803;28;20159;-48
2022/07/13 00:22:08;;;;;;;3.00;1.50;;;18.20;99.90;;;;;;5002337;28;20116;-49
2022/07/13 00:24:34;;;;;;;8.13;2.15;;;18.10;99.90;;;;;;5002775;28;20092;-49
2022/07/13 00:27:00;;;;;;;3.80;1.60;;;18.10;99.90;;;;;;5053927;28;20021;-47
2022/07/13 00:29:25;;;;;;;2.75;1.42;;;18.10;99.90;;;;;;5054659;28;20036;-49
2022/07/13 00:31:51;;;;;;;3.97;1.52;;;18.10;99.90;;;;;;5035613;28;20032;-49
2022/07/13 00:34:17;;;;;;;1.75;1.60;;;18.20;99.90;;;;;;5035518;28;20387;-49
2022/07/13 00:36:43;;;;;;;3.70;1.38;;;18.10;99.90;;;;;;5035444;28;20037;-48
2022/07/13 00:39:08;;;;;;;2.97;1.50;;;18.20;99.90;;;;;;5064278;28;20052;-49
2022/07/13 00:41:34;;;;;;;2.05;1.40;;;18.20;99.90;;;;;;5074172;28;20028;-48
2022/07/13 00:44:09;;;;;;;3.35;1.60;;;18.20;99.90;;;;;;5074416;28;20456;-49
2022/07/13 00:46:35;;;;;;;2.05;1.40;;;18.20;99.90;;;;;;5074207;28;20028;-48
2022/07/13 00:49:03;;;;;;;3.90;1.60;;;18.20;99.90;;;;;;5071170;28;20082;-47
2022/07/13 00:51:29;;;;;;;2.22;1.40;;;18.20;99.90;;;;;;5038602;28;20116;-49
2022/07/13 00:53:55;;;;;;;2.50;1.40;;;18.20;99.90;;;;;;5021954;28;20068;-49
2022/07/13 00:56:22;;;;;;;2.40;1.50;;;18.10;99.90;;;;;;5073984;28;20032;-48
2022/07/13 00:58:49;;;;;;;2.85;1.63;;;18.20;99.90;;;;;;5055073;28;20056;-47
2022/07/13 01:01:15;;;;;;;2.90;1.42;;;18.10;99.90;;;;;;5073648;28;20090;-48
2022/07/13 01:03:40;;;;;;;2.22;1.52;;;18.10;99.90;;;;;;5073978;28;20028;-48
2022/07/13 01:06:08;;;;;;;3.63;1.63;;;18.10;99.90;;;;;;5038266;28;20038;-48
2022/07/13 01:08:35;;;;;;;1.58;1.20;;;18.20;99.90;;;;;;5054849;28;20032;-49
2022/07/13 01:11:01;;;;;;;3.13;1.33;;;18.10;99.90;;;;;;5074123;28;20115;-47
2022/07/13 01:13:27;;;;;;;3.75;1.48;;;18.00;99.90;;;;;;5037904;28;20041;-47
2022/07/13 01:15:53;;;;;;;2.75;1.75;;;18.10;99.90;;;;;;5073694;28;20025;-49
2022/07/13 01:18:20;;;;;;;3.25;1.65;;;18.10;99.90;;;;;;5073465;28;20033;-47
2022/07/13 01:20:46;;;;;;;3.40;1.50;;;18.10;99.90;;;;;;5073513;28;20025;-48
2022/07/13 01:23:14;;;;;;;3.88;1.67;;;18.10;99.90;;;;;;5073165;28;20024;-49
2022/07/13 01:25:41;;;;;;;4.07;1.80;;;18.10;99.90;;;;;;5073549;28;20422;-48
2022/07/13 01:28:07;;;;;;;3.40;2.10;;;18.00;99.90;;;;;;5073345;28;20032;-48
2022/07/13 01:30:33;;;;;;;3.67;2.08;;;18.10;99.90;;;;;;5073331;28;20056;-49
2022/07/13 01:32:59;;;;;;;1.98;1.40;;;18.10;99.90;;;;;;5073197;28;20039;-50
2022/07/13 01:35:25;;;;;;;2.90;2.05;;;18.10;99.90;;;;;;5072839;28;20036;-48
2022/07/13 01:37:52;;;;;;;3.80;1.63;;;18.10;99.90;;;;;;5036478;28;20171;-50
2022/07/13 01:40:18;;;;;;;4.35;1.60;;;18.10;99.90;;;;;;5047951;28;20049;-48
2022/07/13 01:42:46;;;;;;;3.67;1.60;;;18.10;99.90;;;;;;5053116;28;20031;-48
2022/07/13 01:45:14;;;;;;;2.97;1.38;;;17.90;99.90;;;;;;5053189;28;20033;-49
2022/07/13 01:47:47;;;;;;;3.08;1.45;;;17.80;99.90;;;;;;5050898;28;20047;-48
2022/07/13 01:50:15;;;;;;;3.63;1.70;;;17.80;99.90;;;;;;5050606;28;20116;-47
2022/07/13 01:52:41;;;;;;;5.30;1.80;;;17.70;99.90;;;;;;5053046;28;20025;-50
2022/07/13 01:55:09;;;;;;;2.38;1.85;;;17.70;99.90;;;;;;5053002;28;20412;-48
2022/07/13 01:57:35;;;;;;;3.10;1.52;;;17.70;99.90;;;;;;5052757;28;20040;-48
2022/07/13 02:00:08;;;;;;;5.35;2.38;;;17.70;99.90;;;;;;5053027;28;20036;-47
2022/07/13 02:02:34;;;;;;;3.63;1.60;;;17.60;99.90;;;;;;5034430;28;20040;-50
2022/07/13 02:04:59;;;;;;;4.68;1.60;;;17.50;99.90;;;;;;5052914;28;20021;-47
2022/07/13 02:07:25;;;;;;;3.97;1.83;;;17.60;99.90;;;;;;5052446;28;20047;-49
2022/07/13 02:09:51;;;;;;;2.40;1.67;;;17.60;99.90;;;;;;5052627;28;20055;-48
2022/07/13 02:12:17;;;;;;;5.88;1.83;;;17.60;99.90;;;;;;5052423;28;20055;-47
2022/07/13 02:14:44;;;;;;;8.00;2.22;;;17.60;99.90;;;;;;5000781;28;20044;-50
2022/07/13 02:17:10;;;;;;;2.70;1.63;;;17.60;99.90;;;;;;5052428;28;20411;-48
2022/07/13 02:19:35;;;;;;;3.47;1.50;;;17.60;99.90;;;;;;5033604;28;20055;-50
2022/07/13 02:22:01;;;;;;;2.33;1.70;;;17.70;99.90;;;;;;5052360;28;20037;-48
2022/07/13 02:24:27;;;;;;;2.78;1.60;;;17.70;99.90;;;;;;5052515;28;20036;-49
2022/07/13 02:26:53;;;;;;;2.88;1.85;;;17.70;99.90;;;;;;5052322;28;20021;-47
2022/07/13 02:29:19;;;;;;;3.50;1.60;;;17.60;99.90;;;;;;5050012;28;20033;-49
2022/07/13 02:31:44;;;;;;;3.50;2.03;;;17.70;99.90;;;;;;5052117;28;20511;-48
2022/07/13 02:34:10;;;;;;;3.00;1.48;;;17.80;99.90;;;;;;5052766;28;20025;-50
2022/07/13 02:36:37;;;;;;;13.27;3.30;;;17.80;99.90;;;;;;5052219;28;20542;-49
2022/07/13 02:39:03;;;;;;;5.47;2.03;;;17.80;99.90;;;;;;5061354;28;20052;-49
2022/07/13 02:41:29;;;;;;;3.42;1.73;;;17.80;99.90;;;;;;5072022;28;20056;-47
2022/07/13 02:43:54;;;;;;;5.60;2.15;;;17.80;99.90;;;;;;5036824;28;20522;-49
2022/07/13 02:46:20;;;;;;;2.97;1.70;;;17.80;99.90;;;;;;5072378;28;20071;-48
2022/07/13 02:48:46;;;;;;;3.80;1.67;;;17.70;99.90;;;;;;5072093;28;20025;-47
2022/07/13 02:51:12;;;;;;;3.15;1.85;;;17.70;99.90;;;;;;5036507;28;20037;-49
2022/07/13 02:53:37;;;;;;;3.40;1.90;;;17.80;99.90;;;;;;5071954;28;20037;-49
2022/07/13 02:56:06;;;;;;;2.40;1.70;;;17.80;99.90;;;;;;5036784;28;20395;-48
2022/07/13 02:58:35;;;;;;;3.00;1.70;;;17.80;99.90;;;;;;5003295;28;20071;-48
2022/07/13 03:01:01;;;;;;;4.03;1.63;;;17.80;99.90;;;;;;5072206;28;20493;-47
2022/07/13 03:03:26;;;;;;;5.00;2.17;;;17.80;99.90;;;;;;5071788;28;20131;-48
2022/07/13 03:05:52;;;;;;;3.95;1.90;;;17.80;99.90;;;;;;5036462;28;20033;-48
2022/07/13 03:08:18;;;;;;;2.83;1.63;;;17.70;99.90;;;;;;5036487;28;20055;-50
2022/07/13 03:10:45;;;;;;;3.72;1.30;;;17.80;99.90;;;;;;5020033;28;20043;-48
2022/07/13 03:13:11;;;;;;;4.78;2.00;;;17.70;99.90;;;;;;5036870;28;20043;-49
2022/07/13 03:15:37;;;;;;;3.60;1.65;;;17.70;99.90;;;;;;5071800;28;20025;-50
2022/07/13 03:18:03;;;;;;;2.35;1.73;;;17.70;99.90;;;;;;5071704;28;20039;-47
2022/07/13 03:20:29;;;;;;;2.00;1.40;;;17.70;99.90;;;;;;5036314;28;20131;-50
2022/07/13 03:22:54;;;;;;;5.20;1.70;;;17.70;99.90;;;;;;5071646;28;20554;-48
2022/07/13 03:25:20;;;;;;;2.83;1.73;;;17.70;99.90;;;;;;5052964;28;20037;-50
2022/07/13 03:27:46;;;;;;;5.32;2.00;;;17.70;99.90;;;;;;5036430;28;20028;-48
2022/07/13 03:30:12;;;;;;;4.38;1.40;;;17.70;99.90;;;;;;5036386;28;20127;-47
2022/07/13 03:32:37;;;;;;;2.47;1.50;;;17.70;99.90;;;;;;5003050;28;20488;-49
2022/07/13 03:35:03;;;;;;;2.25;1.55;;;17.80;99.90;;;;;;5053999;28;20483;-50
2022/07/13 03:37:29;;;;;;;2.10;1.42;;;17.80;99.90;;;;;;5035999;28;20049;-46
2022/07/13 03:39:55;;;;;;;4.72;1.65;;;17.80;99.90;;;;;;5036014;28;20045;-48
2022/07/13 03:42:21;;;;;;;2.92;1.60;;;17.80;99.90;;;;;;5071537;28;20033;-49
2022/07/13 03:44:46;;;;;;;4.32;2.10;;;17.90;99.90;;;;;;5071461;28;20040;-49
2022/07/13 03:47:12;;;;;;;7.43;2.00;;;17.90;99.90;;;;;;5036073;28;20037;-48
2022/07/13 03:49:38;;;;;;;2.63;1.70;;;17.90;99.90;;;;;;5071885;28;20103;-50
2022/07/13 03:52:04;;;;;;;3.22;1.33;;;18.00;99.90;;;;;;5071531;28;20683;-48
2022/07/13 03:54:31;;;;;;;1.83;1.38;;;18.00;99.90;;;;;;5035950;28;20138;-48
2022/07/13 03:56:57;;;;;;;3.17;1.80;;;18.00;99.90;;;;;;5071576;28;20395;-50
2022/07/13 03:59:22;;;;;;;1.63;1.50;;;18.00;99.90;;;;;;5071718;28;20032;-49
2022/07/13 04:01:48;;;;;;;5.07;1.90;;;18.00;99.90;;;;;;5074106;28;20416;-47
2022/07/13 04:04:14;;;;;;;8.07;3.30;;;18.10;99.90;;;;;;5049798;28;20546;-49
2022/07/13 04:06:40;;;;;;;3.10;1.70;;;18.20;99.90;;;;;;5075710;28;20536;-49
2022/07/13 04:09:05;;;;;;;3.25;1.30;;;18.20;99.90;;;;;;5095118;28;20028;-50
2022/07/13 04:11:31;;;;;;;4.07;1.50;;;18.20;99.90;;;;;;5095213;28;20475;-49
2022/07/13 04:13:57;;;;;;;2.72;1.70;;;18.30;99.90;;;;;;5095300;28;20081;-49
2022/07/13 04:16:23;;;;;;;3.22;1.45;;;18.30;99.90;;;;;;5019466;28;20038;-50
2022/07/13 04:18:48;;;;;;;2.80;1.50;;;18.40;99.90;;;;;;5083554;28;20368;-48
2022/07/13 04:21:14;;;;;;;4.25;1.52;;;18.40;99.90;;;;;;5084491;28;20077;-50
2022/07/13 04:23:40;;;;;;;3.63;1.67;;;18.50;99.90;;;;;;5048515;28;20082;-47
2022/07/13 04:26:06;;;;;;;2.75;1.40;;;18.60;99.90;;;;;;5084393;28;20575;-50
2022/07/13 04:28:32;;;;;;;3.03;1.52;;;18.50;99.90;;;;;;5081664;28;20021;-48
2022/07/13 04:30:59;;;;;;;5.40;1.98;;;18.60;99.90;;;;;;5030985;28;20037;-48
2022/07/13 04:33:25;;;;;;;1.67;1.40;;;18.60;99.90;;;;;;5084108;28;20036;-48
2022/07/13 04:35:50;;;;;;;3.35;1.45;;;18.70;99.90;;;;;;5083873;28;20082;-47
2022/07/13 04:38:16;;;;;;;1.65;1.30;;;18.70;99.90;;;;;;5082888;28;20385;-50
2022/07/13 04:40:42;;;;;;;2.38;1.58;;;18.80;99.90;;;;;;5083344;28;20414;-48
2022/07/13 04:43:08;;;;;;;3.55;1.40;;;18.90;99.90;;;;;;5083324;28;20057;-48
2022/07/13 04:45:34;;;;;;;2.00;1.50;;;19.00;99.90;;;;;;5047910;28;20420;-50
2022/07/13 04:47:59;;;;;;;2.85;1.08;;;19.10;99.90;;;;;;5031660;28;20071;-46
2022/07/13 04:50:25;;;;;;;6.47;1.40;;;19.10;99.90;;;;;;5083469;28;20480;-49
2022/07/13 04:52:51;;;;;;;3.78;1.45;;;19.20;99.90;;;;;;5030452;28;20037;-48
2022/07/13 04:55:17;;;;;;;1.90;1.40;;;19.40;99.90;;;;;;5047375;28;20544;-48
2022/07/13 04:57:44;;;;;;;1.88;1.08;;;19.30;99.90;;;;;;5082647;28;20497;-47
2022/07/13 05:00:11;;;;;;;1.88;1.33;;;19.50;99.90;;;;;;5083415;28;20051;-49
2022/07/13 05:02:38;;;;;;;4.53;1.40;;;19.60;99.90;;;;;;5083352;28;20080;-50
2022/07/13 05:05:05;;;;;;;3.03;1.23;;;19.70;99.90;;;;;;5031499;28;20124;-50
2022/07/13 05:07:31;;;;;;;1.83;1.58;;;19.70;99.90;;;;;;5083693;28;20027;-48
2022/07/13 05:09:57;;;;;;;3.25;1.30;;;19.80;99.90;;;;;;5047484;28;20403;-47
2022/07/13 05:12:23;;;;;;;3.10;1.60;;;19.90;99.90;;;;;;5082236;28;20038;-50
2022/07/13 05:14:49;;;;;;;2.42;1.42;;;20.00;99.90;;;;;;5038096;28;20409;-49
2022/07/13 05:17:16;;;;;;;1.95;1.10;;;20.10;99.90;;;;;;5071858;28;20500;-50
2022/07/13 05:19:43;;;;;;;3.53;1.20;;;20.20;99.90;;;;;;5080709;28;20056;-48
2022/07/13 05:22:09;;;;;;;3.13;1.40;;;20.30;99.90;;;;;;5082261;28;20036;-47
2022/07/13 05:24:36;;;;;;;3.35;1.30;;;20.30;99.90;;;;;;5082791;28;20024;-49
2022/07/13 05:27:02;;;;;;;1.23;0.98;;;20.40;99.90;;;;;;5082865;28;20054;-48
2022/07/13 05:29:28;;;;;;;1.45;1.10;;;20.40;99.90;;;;;;5082595;28;20446;-48
2022/07/13 05:31:53;;;;;;;2.05;1.10;;;20.40;99.90;;;;;;5082796;28;20051;-49
2022/07/13 05:34:19;;;;;;;3.22;1.25;;;20.40;99.90;;;;;;5083413;28;20028;-51
2022/07/13 05:36:45;;;;;;;2.78;1.20;;;20.50;99.90;;;;;;5045564;28;20037;-50
2022/07/13 05:39:11;;;;;;;1.95;1.20;;;20.60;99.90;;;;;;5081945;28;20067;-48
2022/07/13 05:41:36;;;;;;;3.67;1.55;;;20.60;99.90;;;;;;5073700;28;20025;-50
2022/07/13 05:44:02;;;;;;;3.80;1.20;;;20.60;99.90;;;;;;5073195;28;20052;-47
2022/07/13 05:46:28;;;;;;;3.60;1.27;;;20.60;99.90;;;;;;5037694;28;20408;-51
2022/07/13 05:48:54;;;;;;;2.63;1.35;;;20.60;99.90;;;;;;5037575;28;20049;-48
2022/07/13 05:51:19;;;;;;;3.35;1.40;;;20.60;99.90;;;;;;5036924;28;20193;-48
2022/07/13 05:53:46;;;;;;;2.50;1.50;;;20.70;99.90;;;;;;5072791;28;20082;-48
2022/07/13 05:56:13;;;;;;;1.85;1.10;;;20.70;99.90;;;;;;5037800;28;20047;-51
2022/07/13 05:58:39;;;;;;;4.13;1.70;;;20.80;99.90;;;;;;5072955;28;20471;-51
2022/07/13 06:01:05;;;;;;;8.00;2.10;;;20.90;99.90;;;;;;5072685;28;20060;-49
2022/07/13 06:03:31;;;;;;;3.40;1.60;;;20.80;99.90;;;;;;5072979;28;20484;-47
2022/07/13 06:05:56;;;;;;;7.78;1.55;;;21.00;99.90;;;;;;5072580;28;20037;-50
2022/07/13 06:08:22;;;;;;;2.30;1.48;;;20.80;99.90;;;;;;5072656;28;20059;-50
2022/07/13 06:10:48;;;;;;;5.88;1.70;;;20.80;99.90;;;;;;5037072;28;20033;-46
2022/07/13 06:13:13;;;;;;;4.20;1.55;;;21.00;99.90;;;;;;5072585;28;20029;-48
2022/07/13 06:15:39;;;;;;;3.05;1.83;;;21.00;99.90;;;;;;5072708;28;20064;-47
2022/07/13 06:18:05;;;;;;;1.95;1.10;;;21.00;99.90;;;;;;5072835;28;20036;-47
2022/07/13 06:20:31;;;;;;;3.40;1.27;;;20.90;99.90;;;;;;5037096;28;20487;-49
2022/07/13 06:23:09;;;;;;;1.77;1.20;;;21.00;99.90;;;;;;5071847;28;20024;-49
2022/07/13 06:25:38;;;;;;;5.15;1.65;;;21.10;99.90;;;;;;5040535;28;20047;-49
2022/07/13 06:28:05;;;;;;;3.63;1.25;;;21.20;99.90;;;;;;5053548;28;20499;-48
2022/07/13 06:30:31;;;;;;;3.88;1.40;;;21.20;99.90;;;;;;5072631;28;20024;-49
2022/07/13 06:32:57;;;;;;;5.25;1.60;;;21.30;99.90;;;;;;5072194;28;20210;-50
2022/07/13 06:35:23;;;;;;;2.95;1.40;;;21.30;99.90;;;;;;5037089;28;20554;-48
2022/07/13 06:37:49;;;;;;;4.10;1.90;;;21.40;99.90;;;;;;5020007;28;20044;-51
2022/07/13 06:40:15;;;;;;;5.38;1.42;;;21.50;99.90;;;;;;5071370;28;20170;-51
2022/07/13 06:42:40;;;;;;;2.45;1.42;;;21.50;99.90;;;;;;5035628;28;20036;-49
2022/07/13 06:45:07;;;;;;;2.60;1.23;;;21.50;99.90;;;;;;5071229;28;20032;-49
2022/07/13 06:47:32;;;;;;;5.72;1.73;;;21.50;99.90;;;;;;5002549;28;20116;-48
2022/07/13 06:49:58;;;;;;;4.72;1.85;;;21.60;99.90;;;;;;5035677;28;20117;-48
2022/07/13 06:52:24;;;;;;;5.30;1.50;;;21.80;99.90;;;;;;5071217;28;20062;-50
2022/07/13 06:54:49;;;;;;;2.33;1.42;;;21.80;99.90;;;;;;5035536;28;20071;-50
2022/07/13 06:57:15;;;;;;;3.17;1.23;;;21.90;99.90;;;;;;5071155;28;20036;-49
2022/07/13 06:59:42;;;;;;;4.50;1.55;;;22.00;99.90;;;;;;5035727;28;20040;-49
2022/07/13 07:02:08;;;;;;;2.30;1.40;;;22.10;99.90;;;;;;5071170;28;20032;-49
2022/07/13 07:04:35;;;;;;;10.88;2.28;;;22.10;99.90;;;;;;5071365;28;20028;-49
2022/07/13 07:07:01;;;;;;;5.53;1.40;;;22.30;99.90;;;;;;5070755;28;20029;-51
2022/07/13 07:09:27;;;;;;;4.38;1.60;;;22.10;99.90;;;;;;5071018;28;20025;-47
2022/07/13 07:11:53;;;;;;;6.43;1.60;;;22.30;99.90;;;;;;5042194;28;20040;-51
2022/07/13 07:14:18;;;;;;;3.65;1.23;;;22.50;99.90;;;;;;5052047;28;20039;-50
2022/07/13 07:16:44;;;;;;;3.15;1.33;;;22.60;99.90;;;;;;5051920;28;20032;-51
2022/07/13 07:19:10;;;;;;;3.05;1.23;;;22.80;99.90;;;;;;5051637;28;20068;-51
2022/07/13 07:21:37;;;;;;;1.73;1.20;;;;;;;;;;5070955;28;20506;-48
2022/07/13 07:24:03;;;;;;;2.92;1.48;;;;;;;;;;5071006;28;20079;-48
2022/07/13 07:26:32;;;;;;;2.60;1.20;;;;;;;;;;5070835;28;20024;-50
2022/07/13 07:28:59;;;;;;;1.73;1.33;;;;;;;;;;5070799;28;20082;-50
2022/07/13 07:31:25;;;;;;;2.92;1.20;;;23.30;99.90;;;;;;5070730;28;20598;-47
2022/07/13 07:33:51;;;;;;;3.45;1.42;;;;;;;;;;5070805;28;20414;-51
2022/07/13 07:36:17;;;;;;;2.38;1.13;;;23.60;99.90;;;;;;5072623;28;20025;-47
2022/07/13 07:38:44;;;;;;;2.80;1.40;;;23.50;99.90;;;;;;5074213;28;20056;-51
2022/07/13 07:41:12;;;;;;;3.08;1.30;;;23.70;99.90;;;;;;5074479;28;20028;-48
2022/07/13 07:43:38;;;;;;;3.47;1.40;;;;;;;;;;5074841;28;20032;-48
2022/07/13 07:46:04;;;;;;;4.22;1.40;;;24.00;99.90;;;;;;5074015;28;20035;-50
2022/07/13 07:48:30;;;;;;;3.30;1.25;;;24.00;99.90;;;;;;5038781;28;20119;-48
2022/07/13 07:50:56;;;;;;;5.18;1.90;;;24.10;99.90;;;;;;5074194;28;20099;-47
2022/07/13 07:53:22;;;;;;;5.65;1.40;;;24.10;99.90;;;;;;5055231;28;20064;-49
2022/07/13 07:55:47;;;;;;;4.78;1.40;;;24.30;99.90;;;;;;5074164;28;20028;-47
2022/07/13 07:58:14;;;;;;;2.45;1.20;;;24.60;99.90;;;;;;5038286;28;20075;-50
2022/07/13 08:00:43;;;;;;;3.42;1.52;;;24.40;99.90;;;;;;5074030;28;20111;-50
2022/07/13 08:03:10;;;;;;;6.78;1.30;;;24.30;99.90;;;;;;5074144;28;20481;-51
2022/07/13 08:05:36;;;;;;;6.85;1.40;;;24.60;99.90;;;;;;5074504;28;20051;-51
2022/07/13 08:08:02;;;;;;;2.35;1.30;;;;;;;;;;5074051;28;20028;-47
2022/07/13 08:10:29;;;;;;;6.75;1.20;;;24.70;99.80;;;;;;5073896;28;20464;-51
2022/07/13 08:13:03;;;;;;;4.68;1.27;;;24.70;99.90;;;;;;5031121;28;20030;-49
2022/07/13 08:15:30;;;;;;;3.15;1.40;;;24.80;99.90;;;;;;5031452;28;20037;-48
2022/07/13 08:17:56;;;;;;;5.25;1.48;;;24.90;99.30;;;;;;5031294;28;20417;-51
2022/07/13 08:20:23;;;;;;;2.80;1.45;;;;;;;;;;5031272;28;20041;-48
2022/07/13 08:22:49;;;;;;;3.17;1.40;;;;;;;;;;5014797;28;20448;-51
2022/07/13 08:25:15;;;;;;;3.28;1.23;;;;;;;;;;5031057;28;20048;-51
2022/07/13 08:27:42;;;;;;;2.50;1.25;;;;;;;;;;5031040;28;20038;-50
2022/07/13 08:30:10;;;;;;;2.35;1.30;;;;;;;;;;5030928;28;20028;-51
2022/07/13 08:32:36;;;;;;;6.00;1.40;;;25.40;99.90;;;;;;5031146;28;20041;-49
2022/07/13 08:40:32;;;;;;;3.40;1.25;;;25.30;97.30;;;;;;5031068;28;20203;-50
2022/07/13 08:42:59;;;;;;;0.95;0.77;;;25.40;97.20;;;;;;5035364;28;20100;-47
2022/07/13 08:45:25;;;;;;;1.55;0.85;;;;;;;;;;5073271;28;20104;-50
2022/07/13 08:47:52;;;;;;;3.45;0.90;;;;;;;;;;5020583;28;20495;-50
2022/07/13 08:50:21;;;;;;;2.13;0.80;;;;;;;;;;5073266;28;20491;-49
2022/07/13 08:52:47;;;;;;;2.28;0.85;;;26.30;98.20;;;;;;5073413;28;20111;-49
2022/07/13 08:55:13;;;;;;;1.58;1.00;;;26.30;95.10;;;;;;5072969;28;20039;-50
2022/07/13 08:57:40;;;;;;;3.10;1.00;;;26.10;93.20;;;;;;5073173;28;20032;-51
2022/07/13 09:00:12;;;;;;;1.50;0.80;;;26.00;93.80;;;;;;5037277;28;20044;-49
2022/07/13 09:02:38;;;;;;;1.88;1.08;;;26.10;93.50;;;;;;5038449;28;20113;-50
2022/07/13 09:05:07;;;;;;;4.18;1.33;;;26.20;94.60;;;;;;5072643;28;20025;-50
2022/07/13 09:07:34;;;;;;;1.80;1.00;;;;;;;;;;5053678;28;20049;-50
2022/07/13 09:10:03;;;;;;;2.72;0.93;;;26.70;99.90;;;;;;5072735;28;20565;-51
2022/07/13 09:12:30;;;;;;;1.73;0.73;;;26.70;99.90;;;;;;5072614;28;20033;-51
2022/07/13 09:14:59;;;;;;;7.30;2.00;;;26.70;99.90;;;;;;5053731;28;20033;-49
2022/07/13 09:17:38;;;;;;;1.33;0.82;;;26.70;99.90;;;;;;5053215;28;20404;-48
2022/07/13 09:20:12;;;;;;;1.85;0.90;;;26.80;91.80;;;;;;5073099;28;20028;-50
2022/07/13 09:23:01;;;;;;;2.10;0.90;;;27.10;99.90;;;;;;5036880;28;20028;-49
2022/07/13 09:25:32;;;;;;;1.88;0.82;;;26.80;99.90;;;;;;5029985;28;20060;-50
2022/07/13 09:28:08;;;;;;;3.90;1.35;;;;;;;;;;4990276;28;20453;-50
2022/07/13 09:30:34;;;;;;;1.45;0.90;;;;;;;;;;4990240;28;20046;-52
2022/07/13 09:33:00;;;;;;;1.38;0.93;;;;;;;;;;4990428;28;20034;-49
2022/07/13 09:35:47;;;;;;;0.70;0.70;;;27.20;99.90;;;;;;4990424;28;20034;-48
2022/07/13 09:38:36;;;;;;;1.52;0.70;;;27.40;89.20;;;;;;4990074;28;20607;-49
2022/07/13 09:41:18;;;;;;;3.83;0.80;;;;;;;;;;4990402;28;20181;-50
2022/07/13 09:46:55;;;;;;;1.05;0.70;;;27.80;88.70;;;;;;4990441;28;20036;-47
2022/07/13 09:49:30;;;;;;;1.55;0.75;;;27.80;89.80;;;;;;4990281;28;20131;-51
2022/07/13 09:51:58;;;;;;;2.58;0.93;;;27.50;88.50;;;;;;4990036;28;20097;-48
2022/07/13 09:54:28;;;;;;;2.95;0.98;;;27.50;89.00;;;;;;4990132;28;20054;-48
2022/07/13 09:56:57;;;;;;;1.25;0.68;;;;;;;;;;4989789;28;20600;-47
2022/07/13 09:59:23;;;;;;;0.73;0.60;;;;;;;;;;5015249;28;20040;-50
2022/07/13 10:01:50;;;;;;;1.48;0.77;;;28.10;97.70;;;;;;5033872;28;20032;-50
2022/07/13 10:04:16;;;;;;;0.95;0.60;;;;;;;;;;5049190;28;20072;-47
2022/07/13 10:06:42;;;;;;;0.77;0.77;;;28.30;95.10;;;;;;5049292;28;20032;-48
2022/07/13 10:09:08;;;;;;;1.20;0.80;;;28.30;87.20;;;;;;5032376;28;20172;-47
2022/07/13 10:11:34;;;;;;;1.45;1.10;;;28.10;85.50;;;;;;5048972;28;20113;-49
2022/07/13 10:14:00;;;;;;;0.98;0.63;;;28.50;87.40;;;;;;5049190;28;20191;-48
2022/07/13 10:16:30;;;;;;;2.42;1.10;;;28.60;86.90;;;;;;5049074;28;20520;-50
2022/07/13 10:19:03;;;;;;;2.28;0.85;;;28.20;86.80;;;;;;5048966;28;20120;-48
2022/07/13 10:21:55;;;;;;;4.15;1.00;;;28.10;86.60;;;;;;5048402;28;20060;-48
2022/07/13 10:24:21;;;;;;;2.17;0.88;;;28.10;88.10;;;;;;5048503;28;20033;-49
2022/07/13 10:26:48;;;;;;;5.53;1.10;;;28.70;88.30;;;;;;5048830;28;20566;-50
2022/07/13 10:29:15;;;;;;;2.13;1.45;;;29.00;97.10;;;;;;5052800;28;20039;-49
2022/07/13 10:31:42;;;;;;;2.15;1.30;;;;;;;;;;5071246;28;20090;-48
2022/07/13 10:34:10;;;;;;;2.40;1.73;;;28.90;99.90;;;;;;5019357;28;20041;-47
2022/07/13 10:36:51;;;;;;;0.85;0.80;;;;;;;;;;5068181;28;20033;-47
2022/07/13 10:39:22;;;;;;;3.10;0.82;;;29.60;85.40;;;;;;5071130;28;20080;-49
2022/07/13 10:41:58;;;;;;;2.30;0.70;;;29.50;83.90;;;;;;5071392;28;20054;-49
2022/07/13 10:44:42;;;;;;;1.45;0.90;;;29.50;84.20;;;;;;5071619;28;20093;-48
2022/07/13 10:47:11;;;;;;;1.83;0.95;;;29.80;85.60;;;;;;5052370;28;20052;-53
2022/07/13 10:49:47;;;;;;;2.92;0.77;;;;;;;;;;5071042;28;20031;-53
2022/07/13 10:52:20;;;;;;;1.52;0.90;;;;;;;;;;5070645;28;20030;-52
2022/07/13 10:55:05;;;;;;;0.95;0.73;;;30.10;83.60;;;;;;5071278;28;20036;-55
2022/07/13 10:57:32;;;;;;;1.02;0.90;;;30.20;84.10;;;;;;5071435;28;20031;-54
2022/07/13 11:00:30;;;;;;;1.50;0.77;;;29.80;84.80;;;;;;5071129;28;20036;-50
2022/07/13 11:03:06;;;;;;;2.42;1.00;;;29.60;81.80;;;;;;5071040;28;20082;-50
2022/07/13 11:05:35;;;;;;;3.35;0.75;;;29.50;83.00;;;;;;5070795;28;20029;-50
2022/07/13 11:08:15;;;;;;;3.75;0.70;;;29.50;81.10;;;;;;5071033;28;20033;-48
2022/07/13 11:10:41;;;;;;;1.73;0.80;;;29.10;82.40;;;;;;5038191;28;20036;-51
2022/07/13 11:13:09;;;;;;;0.73;0.60;;;29.30;81.90;;;;;;5075102;28;20500;-54
2022/07/13 11:15:56;;;;;;;2.25;0.77;;;29.10;79.70;;;;;;5075181;28;20059;-52
2022/07/13 11:18:22;;;;;;;1.67;0.70;;;29.50;80.80;;;;;;5074051;28;20090;-50
2022/07/13 11:21:04;;;;;;;2.35;0.80;;;29.80;80.00;;;;;;5074849;28;20028;-51
2022/07/13 11:26:59;;;;;;;2.00;0.70;;;29.90;80.40;;;;;;5074743;28;20039;-52
2022/07/13 11:29:49;;;;;;;1.83;0.60;;;29.60;80.90;;;;;;5074464;28;20025;-53
2022/07/13 11:32:20;;;;;;;0.30;0.30;;;29.10;79.40;;;;;;5074977;28;20039;-49
2022/07/13 11:34:49;;;;;;;1.05;0.88;;;29.30;78.90;;;;;;5074516;28;20103;-48
2022/07/13 11:37:22;;;;;;;1.73;0.70;;;29.50;77.70;;;;;;5074954;28;20037;-50
2022/07/13 11:39:48;;;;;;;1.92;1.15;;;29.50;79.00;;;;;;5074294;28;20645;-50
2022/07/13 11:42:13;;;;;;;1.65;0.70;;;29.80;79.80;;;;;;5074439;28;20020;-51
2022/07/13 11:44:40;;;;;;;0.70;0.60;;;30.10;78.60;;;;;;5074235;28;20028;-52
2022/07/13 11:47:12;;;;;;;3.60;0.50;;;30.20;77.90;;;;;;5074484;28;20039;-51
2022/07/13 11:49:50;;;;;;;1.05;0.80;;;30.40;78.20;;;;;;5074546;28;20113;-48
2022/07/13 11:52:22;;;;;;;1.77;0.70;;;30.60;77.40;;;;;;5074343;28;20052;-51
2022/07/13 11:55:01;;;;;;;0.93;0.73;;;30.30;76.90;;;;;;5038554;28;20365;-52
2022/07/13 11:57:28;;;;;;;2.97;0.88;;;30.60;77.00;;;;;;5054961;28;20041;-53
2022/07/13 12:00:08;;;;;;;2.80;0.70;;;30.40;76.70;;;;;;5055303;28;20048;-52
2022/07/13 12:02:36;;;;;;;2.33;0.77;;;30.20;77.00;;;;;;5074091;28;20130;-51
2022/07/13 12:05:03;;;;;;;3.28;0.75;;;30.20;77.30;;;;;;5074594;28;20055;-50
2022/07/13 12:07:30;;;;;;;0.52;0.52;;;30.40;76.90;;;;;;5074975;28;20107;-51
2022/07/13 12:09:59;;;;;;;0.95;0.60;;;30.10;75.40;;;;;;5074831;28;20032;-51
2022/07/13 12:12:31;;;;;;;2.60;0.70;;;30.10;75.20;;;;;;5074739;28;20468;-52
2022/07/13 12:14:58;;;;;;;1.17;0.63;;;30.40;77.60;;;;;;5075047;28;20025;-49
2022/07/13 12:17:25;;;;;;;0.60;0.50;;;30.40;75.60;;;;;;5074657;28;20040;-51
2022/07/13 12:19:51;;;;;;;2.50;0.50;;;30.70;75.90;;;;;;5074970;28;20568;-54
2022/07/13 12:22:22;;;;;;;0.88;0.65;;;31.30;75.00;;;;;;5050622;28;20036;-49
2022/07/13 12:24:48;;;;;;;2.53;1.10;;;31.20;75.30;;;;;;5054417;28;20029;-48
2022/07/13 12:27:29;;;;;;;2.72;0.52;;;31.40;74.60;;;;;;5054608;28;20021;-49
2022/07/13 12:30:07;;;;;;;0.70;0.60;;;31.40;74.50;;;;;;5060990;28;20089;-49
2022/07/13 12:32:52;;;;;;;1.88;0.60;;;31.40;73.60;;;;;;5043237;28;20037;-52
2022/07/13 12:35:19;;;;;;;0.40;0.40;;;31.20;73.90;;;;;;5063353;28;20064;-49
2022/07/13 12:37:51;;;;;;;0.68;0.57;;;30.90;73.10;;;;;;5055556;28;20131;-50
2022/07/13 12:40:39;;;;;;;1.30;0.60;;;31.10;74.20;;;;;;5074138;28;20044;-52
2022/07/13 12:43:05;;;;;;;2.20;0.50;;;31.10;71.60;;;;;;5074329;28;20523;-54
2022/07/13 12:45:31;;;;;;;1.17;0.70;;;31.00;71.00;;;;;;5074253;28;20034;-52
2022/07/13 12:47:57;;;;;;;0.75;0.75;;;30.90;71.60;;;;;;5074218;28;20405;-52
2022/07/13 12:50:30;;;;;;;2.50;0.35;;;31.00;71.80;;;;;;5074404;28;20029;-51
2022/07/13 12:53:02;;;;;;;2.85;0.75;;;31.10;72.30;;;;;;5074471;28;20086;-54
2022/07/13 12:55:28;;;;;;;1.88;0.55;;;31.10;72.70;;;;;;5074108;28;20031;-48
2022/07/13 12:57:54;;;;;;;6.28;0.70;;;31.30;72.00;;;;;;5073929;28;20028;-50
2022/07/13 13:00:25;;;;;;;2.88;1.25;;;31.30;71.50;;;;;;5073940;28;20423;-50
2022/07/13 13:02:51;;;;;;;1.02;0.45;;;31.30;72.40;;;;;;5074109;28;20073;-54
2022/07/13 13:05:17;;;;;;;3.60;0.68;;;31.40;71.10;;;;;;5073832;28;20429;-52
2022/07/13 13:07:43;;;;;;;2.83;0.70;;;31.20;71.20;;;;;;5054978;28;20040;-51
2022/07/13 13:10:10;;;;;;;1.45;0.63;;;31.00;71.50;;;;;;5038145;28;20033;-51